Huntley, Nebraska
Current Conditions -  °F | °C
As of 9:15 AM on Wednesday 26 Nov 2014 (Local Time) from KHDE Reporting Station
Overcast Overcast  
Wind Chill: 17°   Ceiling: 2400
Heat Index: 31°   Visibility: 10mi
Dew Point: 20°   Wind: 26mph
Humidity: 64%   Direction: 350°N
Pressure: 30.16"   Gusts: 36mph
Location:  40.1316°N, 99.2306°W
Report Text: KHDE 261515Z AUTO 35023G31KT 10SM OVC024 00/M06 A3016 RMK AO2 T10041064
Loading
Personal Weather Stations






























Interactive Weather Map New forecast layout! Learn more

10-Day Weather Forecast

Advertisements
Track Severe Weather on mobile